createdAt,value
2022-10-09T00:01:10.563Z,5.85
2022-10-09T00:03:39.201Z,4.85
2022-10-09T00:06:08.195Z,5.40
2022-10-09T00:08:36.635Z,5.50
2022-10-09T00:11:07.973Z,6.10
2022-10-09T00:13:35.782Z,5.93
2022-10-09T00:16:04.852Z,5.30
2022-10-09T00:18:31.807Z,6.03
2022-10-09T00:20:58.901Z,5.57
2022-10-09T00:23:25.882Z,5.47
2022-10-09T00:26:01.594Z,5.40
2022-10-09T00:28:34.279Z,6.28
2022-10-09T00:31:07.768Z,6.18
2022-10-09T00:33:36.157Z,5.75
2022-10-09T00:36:09.250Z,6.55
2022-10-09T00:38:36.323Z,6.55
2022-10-09T00:41:03.918Z,6.28
2022-10-09T00:43:40.929Z,6.30
2022-10-09T00:46:25.881Z,6.20
2022-10-09T00:48:59.116Z,6.47
2022-10-09T00:51:26.209Z,6.72
2022-10-09T00:53:53.330Z,5.88
2022-10-09T00:56:20.373Z,5.68
2022-10-09T00:58:52.684Z,5.95
2022-10-09T01:01:19.956Z,5.75
2022-10-09T01:03:47.117Z,6.15
2022-10-09T01:06:35.014Z,6.30
2022-10-09T01:09:18.631Z,5.35
2022-10-09T01:12:02.911Z,5.57
2022-10-09T01:14:46.543Z,5.47
2022-10-09T01:17:16.856Z,5.43
2022-10-09T01:20:17.060Z,6.30
2022-10-09T01:22:59.488Z,6.03
2022-10-09T01:25:32.477Z,6.13
2022-10-09T01:28:02.219Z,5.38
2022-10-09T01:30:30.962Z,5.88
2022-10-09T01:32:59.052Z,6.53
2022-10-09T01:35:27.147Z,5.90
2022-10-09T01:37:56.206Z,6.70
2022-10-09T01:40:25.719Z,6.05
2022-10-09T01:42:52.962Z,6.70
2022-10-09T01:45:19.868Z,5.82
2022-10-09T01:47:46.822Z,5.90
2022-10-09T01:50:31.331Z,5.50
2022-10-09T01:53:03.166Z,5.45
2022-10-09T01:55:48.753Z,5.70
2022-10-09T01:58:20.920Z,5.53
2022-10-09T02:01:02.915Z,5.57
2022-10-09T02:03:31.399Z,4.90
2022-10-09T02:06:01.376Z,5.32
2022-10-09T02:08:31.167Z,5.70
2022-10-09T02:11:00.144Z,5.25
2022-10-09T02:13:27.331Z,5.53
2022-10-09T02:16:07.902Z,5.45
2022-10-09T02:18:41.000Z,5.38
2022-10-09T02:21:16.562Z,5.15
2022-10-09T02:23:46.953Z,5.15
2022-10-09T02:26:14.346Z,5.00
2022-10-09T02:28:45.838Z,5.32
2022-10-09T02:31:34.875Z,5.20
2022-10-09T02:34:04.293Z,4.75
2022-10-09T02:36:32.127Z,5.45
2022-10-09T02:38:59.426Z,4.72
2022-10-09T02:41:26.969Z,5.50
2022-10-09T02:43:54.296Z,5.57
2022-10-09T02:46:21.883Z,5.13
2022-10-09T02:48:48.960Z,5.22
2022-10-09T02:51:16.628Z,5.13
2022-10-09T02:53:43.695Z,5.10
2022-10-09T02:56:10.751Z,5.00
2022-10-09T02:58:38.709Z,4.50
2022-10-09T03:01:06.061Z,4.93
2022-10-09T03:03:33.459Z,4.63
2022-10-09T03:06:10.011Z,4.53
2022-10-09T03:08:38.535Z,4.57
2022-10-09T03:11:06.124Z,4.35
2022-10-09T03:13:33.304Z,4.00
2022-10-09T03:16:05.235Z,4.50
2022-10-09T03:18:32.253Z,4.50
2022-10-09T03:20:59.283Z,4.15
2022-10-09T03:23:26.634Z,4.90
2022-10-09T03:26:01.950Z,4.18
2022-10-09T03:28:29.526Z,4.10
2022-10-09T03:30:56.935Z,4.60
2022-10-09T03:33:23.902Z,4.03
2022-10-09T03:35:50.976Z,4.10
2022-10-09T03:38:18.151Z,4.72
2022-10-09T03:40:45.454Z,4.35
2022-10-09T03:43:12.562Z,4.22
2022-10-09T03:45:40.819Z,3.88
2022-10-09T03:48:08.542Z,4.60
2022-10-09T03:50:35.453Z,4.25
2022-10-09T03:53:02.466Z,4.40
2022-10-09T03:55:29.315Z,4.25
2022-10-09T03:57:56.287Z,4.10
2022-10-09T04:00:23.707Z,4.30
2022-10-09T04:02:51.497Z,4.00
2022-10-09T04:05:19.331Z,4.68
2022-10-09T04:07:46.646Z,3.53
2022-10-09T04:10:14.828Z,4.25
2022-10-09T04:12:41.701Z,3.95
2022-10-09T04:15:09.546Z,3.92
2022-10-09T04:17:37.114Z,3.58
2022-10-09T04:20:04.380Z,4.00
2022-10-09T04:22:31.628Z,3.83
2022-10-09T04:24:58.662Z,3.15
2022-10-09T04:27:25.602Z,3.25
2022-10-09T04:29:52.601Z,4.05
2022-10-09T04:32:19.493Z,3.50
2022-10-09T04:34:46.644Z,4.28
2022-10-09T04:37:13.867Z,4.07
2022-10-09T04:39:40.889Z,4.18
2022-10-09T04:42:08.116Z,3.75
2022-10-09T04:44:35.152Z,3.67
2022-10-09T04:47:02.079Z,3.70
2022-10-09T04:49:29.019Z,3.85
2022-10-09T04:51:56.042Z,3.80
2022-10-09T04:54:23.016Z,3.00
2022-10-09T04:56:50.089Z,3.88
2022-10-09T04:59:17.044Z,3.80
2022-10-09T05:01:44.079Z,3.17
2022-10-09T05:04:10.995Z,3.30
2022-10-09T05:06:37.996Z,3.58
2022-10-09T05:09:04.963Z,2.70
2022-10-09T05:11:32.290Z,3.63
2022-10-09T05:13:59.507Z,3.30
2022-10-09T05:16:31.788Z,3.30
2022-10-09T05:19:00.393Z,3.10
2022-10-09T05:21:30.354Z,3.50
2022-10-09T05:23:57.982Z,3.33
2022-10-09T05:26:26.327Z,2.65
2022-10-09T05:28:53.569Z,3.38
2022-10-09T05:31:26.948Z,3.45
2022-10-09T05:33:55.647Z,3.50
2022-10-09T05:36:22.908Z,3.60
2022-10-09T05:38:50.276Z,3.70
2022-10-09T05:41:19.916Z,3.50
2022-10-09T05:43:57.073Z,3.03
2022-10-09T05:46:25.884Z,3.45
2022-10-09T05:49:01.514Z,2.90
2022-10-09T05:51:30.861Z,2.88
2022-10-09T05:53:58.982Z,3.00
2022-10-09T05:56:28.698Z,2.42
2022-10-09T05:59:20.453Z,2.53
2022-10-09T06:01:53.020Z,2.42
2022-10-09T06:04:24.100Z,2.30
2022-10-09T06:06:52.013Z,2.53
2022-10-09T06:09:25.767Z,2.33
2022-10-09T06:11:56.674Z,2.10
2022-10-09T06:14:24.853Z,2.13
2022-10-09T06:16:52.232Z,1.83
2022-10-09T06:19:20.502Z,1.63
2022-10-09T06:21:48.489Z,2.25
2022-10-09T06:24:25.863Z,1.80
2022-10-09T06:26:55.692Z,1.65
2022-10-09T06:29:22.804Z,1.77
2022-10-09T06:31:49.773Z,1.50
2022-10-09T06:34:17.186Z,1.73
2022-10-09T06:36:44.468Z,2.15
2022-10-09T06:39:11.876Z,2.13
2022-10-09T06:41:39.418Z,2.15
2022-10-09T06:44:15.328Z,1.85
2022-10-09T06:46:44.653Z,1.90
2022-10-09T06:49:12.549Z,2.13
2022-10-09T06:51:39.615Z,2.20
2022-10-09T06:54:12.326Z,2.10
2022-10-09T06:56:39.551Z,2.00
2022-10-09T06:59:07.830Z,1.90
2022-10-09T07:01:35.407Z,1.80
2022-10-09T07:04:09.615Z,1.80
2022-10-09T07:06:42.197Z,1.50
2022-10-09T07:09:12.029Z,1.58
2022-10-09T07:11:43.433Z,1.80
2022-10-09T07:14:12.995Z,1.67
2022-10-09T07:16:43.264Z,1.60
2022-10-09T07:19:12.000Z,1.90
2022-10-09T07:21:41.828Z,1.60
2022-10-09T07:24:09.509Z,2.15
2022-10-09T07:26:39.605Z,1.63
2022-10-09T07:29:08.685Z,1.60
2022-10-09T07:31:35.914Z,1.63
2022-10-09T07:34:03.717Z,2.00
2022-10-09T07:36:30.689Z,1.58
2022-10-09T07:38:59.747Z,1.50
2022-10-09T07:41:28.701Z,1.42
2022-10-09T07:43:57.236Z,1.90
2022-10-09T07:46:29.597Z,1.40
2022-10-09T07:49:01.756Z,1.25
2022-10-09T07:51:30.277Z,1.40
2022-10-09T07:53:58.211Z,1.38
2022-10-09T07:56:29.229Z,1.83
2022-10-09T07:58:59.714Z,1.58
2022-10-09T08:01:31.324Z,1.40
2022-10-09T08:03:59.616Z,1.60
2022-10-09T08:06:27.922Z,1.20
2022-10-09T08:08:57.432Z,1.30
2022-10-09T08:11:25.990Z,1.15
2022-10-09T08:13:54.368Z,1.42
2022-10-09T08:16:24.168Z,1.60
2022-10-09T08:18:58.201Z,1.33
2022-10-09T08:21:26.398Z,1.58
2022-10-09T08:23:55.956Z,1.50
2022-10-09T08:26:24.003Z,1.33
2022-10-09T08:28:59.902Z,1.23
2022-10-09T08:31:28.457Z,1.45
2022-10-09T08:33:57.764Z,1.30
2022-10-09T08:36:25.083Z,1.67
2022-10-09T08:38:53.007Z,1.70
2022-10-09T08:41:28.113Z,1.20
2022-10-09T08:44:11.906Z,1.30
2022-10-09T08:46:56.985Z,1.50
2022-10-09T08:49:38.010Z,1.60
2022-10-09T08:52:16.378Z,1.30
2022-10-09T08:54:43.945Z,1.67
2022-10-09T08:57:15.359Z,1.65
2022-10-09T08:59:45.479Z,1.60
2022-10-09T09:02:32.258Z,1.70
2022-10-09T09:05:29.093Z,1.40
2022-10-09T09:08:18.209Z,1.80
2022-10-09T09:11:10.564Z,1.30
2022-10-09T09:13:40.660Z,1.40
2022-10-09T09:16:10.734Z,1.20
2022-10-09T09:19:05.607Z,1.48
2022-10-09T09:21:50.127Z,1.40
2022-10-09T09:24:24.263Z,1.10
2022-10-09T09:26:55.972Z,1.30
2022-10-09T09:29:24.275Z,0.93
2022-10-09T09:31:56.866Z,1.10
2022-10-09T09:34:40.709Z,1.00
2022-10-09T09:37:11.235Z,1.17
2022-10-09T09:42:32.923Z,1.25
2022-10-09T09:45:08.852Z,1.23
2022-10-09T09:48:10.652Z,1.02
2022-10-09T09:50:56.472Z,1.10
2022-10-09T09:53:43.833Z,1.15
2022-10-09T09:56:12.161Z,1.35
2022-10-09T09:58:45.150Z,1.20
2022-10-09T10:01:29.101Z,1.80
2022-10-09T10:03:58.421Z,2.20
2022-10-09T10:06:42.351Z,1.85
2022-10-09T10:09:21.955Z,1.10
2022-10-09T10:12:03.875Z,0.90
2022-10-09T10:14:32.240Z,0.90
2022-10-09T10:17:01.997Z,1.20
2022-10-09T10:19:36.007Z,1.10
2022-10-09T10:22:21.776Z,1.17
2022-10-09T10:24:51.590Z,1.47
2022-10-09T10:27:31.088Z,0.88
2022-10-09T10:30:16.112Z,1.50
2022-10-09T10:33:13.717Z,1.20
2022-10-09T10:35:44.315Z,1.30
2022-10-09T10:38:26.647Z,1.15
2022-10-09T10:41:19.151Z,0.90
2022-10-09T10:43:52.534Z,0.90
2022-10-09T10:46:26.089Z,1.17
2022-10-09T10:48:53.785Z,1.25
2022-10-09T10:51:42.792Z,1.00
2022-10-09T10:54:24.944Z,0.80
2022-10-09T10:57:02.729Z,0.98
2022-10-09T10:59:45.384Z,0.90
2022-10-09T11:02:47.105Z,0.70
2022-10-09T11:05:52.021Z,0.77
2022-10-09T11:08:30.066Z,0.95
2022-10-09T11:11:02.147Z,1.13
2022-10-09T11:13:50.993Z,0.90
2022-10-09T11:16:37.333Z,1.00
2022-10-09T11:19:13.856Z,1.02
2022-10-09T11:21:44.009Z,0.98
2022-10-09T11:24:38.329Z,1.00
2022-10-09T11:27:29.083Z,1.25
2022-10-09T11:30:15.119Z,0.90
2022-10-09T11:32:51.646Z,1.00
2022-10-09T11:35:34.750Z,1.10
2022-10-09T11:38:07.960Z,0.65
2022-10-09T11:40:42.291Z,1.10
2022-10-09T11:43:40.441Z,1.15
2022-10-09T11:46:14.443Z,0.90
2022-10-09T11:49:01.059Z,1.00
2022-10-09T11:51:41.744Z,0.80
2022-10-09T11:54:16.676Z,1.00
2022-10-09T11:57:06.365Z,1.10
2022-10-09T11:59:36.728Z,1.60
2022-10-09T12:02:27.803Z,1.13
2022-10-09T12:04:55.999Z,1.10
2022-10-09T12:07:34.013Z,1.00
2022-10-09T12:10:04.087Z,0.98
2022-10-09T12:12:32.344Z,1.17
2022-10-09T12:15:12.590Z,1.00
2022-10-09T12:17:48.934Z,1.00
2022-10-09T12:20:26.115Z,1.00
2022-10-09T12:23:21.768Z,1.10
2022-10-09T12:25:46.439Z,1.45
2022-10-09T12:28:28.263Z,1.50
2022-10-09T12:31:00.382Z,1.20
2022-10-09T12:33:50.803Z,1.00
2022-10-09T12:36:26.811Z,1.15
2022-10-09T12:41:30.298Z,1.15
2022-10-09T12:43:58.571Z,1.27
2022-10-09T12:46:32.074Z,1.20
2022-10-09T12:49:02.697Z,1.40
2022-10-09T12:51:31.888Z,1.30
2022-10-09T12:53:59.623Z,0.90
2022-10-09T12:56:33.776Z,1.13
2022-10-09T12:59:04.482Z,0.90
2022-10-09T13:01:33.504Z,1.17
2022-10-09T13:04:06.797Z,1.00
2022-10-09T13:06:44.753Z,0.90
2022-10-09T13:09:39.808Z,0.95
2022-10-09T13:12:17.854Z,0.90
2022-10-09T13:15:01.883Z,1.10
2022-10-09T13:17:37.617Z,1.00
2022-10-09T13:20:30.533Z,1.25
2022-10-09T13:23:03.581Z,1.30
2022-10-09T13:25:49.191Z,1.85
2022-10-09T13:28:20.886Z,2.22
2022-10-09T13:30:48.841Z,1.60
2022-10-09T13:33:16.718Z,1.88
2022-10-09T13:35:44.451Z,1.77
2022-10-09T13:38:17.521Z,1.88
2022-10-09T13:40:45.040Z,2.10
2022-10-09T13:43:24.252Z,1.30
2022-10-09T13:45:51.950Z,1.48
2022-10-09T13:48:19.284Z,1.55
2022-10-09T13:50:46.631Z,2.15
2022-10-09T13:53:13.887Z,2.15
2022-10-09T13:55:42.446Z,1.90
2022-10-09T13:58:09.476Z,1.90
2022-10-09T14:00:37.461Z,2.40
2022-10-09T14:03:04.937Z,3.60
2022-10-09T14:05:33.150Z,4.60
2022-10-09T14:08:00.540Z,3.90
2022-10-09T14:10:29.224Z,4.78
2022-10-09T14:12:57.853Z,4.25
2022-10-09T14:15:24.856Z,5.97
2022-10-09T14:17:52.170Z,4.70
2022-10-09T14:20:20.282Z,4.15
2022-10-09T14:22:47.522Z,3.80
2022-10-09T14:25:14.986Z,4.22
2022-10-09T14:27:44.016Z,3.30
2022-10-09T14:30:12.720Z,3.10
2022-10-09T14:32:40.010Z,2.80
2022-10-09T14:35:07.893Z,2.83
2022-10-09T14:37:42.642Z,2.50
2022-10-09T14:40:11.536Z,2.75
2022-10-09T14:42:39.686Z,2.13
2022-10-09T14:45:08.463Z,2.28
2022-10-09T14:47:36.170Z,2.30
2022-10-09T14:50:03.703Z,2.42
2022-10-09T14:52:30.774Z,2.20
2022-10-09T14:54:57.985Z,2.22
2022-10-09T14:57:25.553Z,2.00
2022-10-09T14:59:54.272Z,1.73
2022-10-09T15:02:21.472Z,2.03
2022-10-09T15:04:48.880Z,2.10
2022-10-09T15:07:16.266Z,2.38
2022-10-09T15:09:43.539Z,2.38
2022-10-09T15:12:10.511Z,1.80
2022-10-09T15:14:37.467Z,2.78
2022-10-09T15:17:05.150Z,2.50
2022-10-09T15:19:33.835Z,2.58
2022-10-09T15:22:01.017Z,2.70
2022-10-09T15:24:28.075Z,2.60
2022-10-09T15:26:55.234Z,2.42
2022-10-09T15:29:23.627Z,1.85
2022-10-09T15:31:52.086Z,2.60
2022-10-09T15:34:20.258Z,2.50
2022-10-09T15:36:47.640Z,2.83
2022-10-09T15:39:16.190Z,2.97
2022-10-09T15:41:44.196Z,3.10
2022-10-09T15:44:20.053Z,3.42
2022-10-09T15:46:48.624Z,3.75
2022-10-09T15:49:16.146Z,3.85
2022-10-09T15:51:44.767Z,4.60
2022-10-09T15:54:13.368Z,3.95
2022-10-09T15:56:41.938Z,3.70
2022-10-09T15:59:17.114Z,3.63
2022-10-09T16:01:44.782Z,3.00
2022-10-09T16:04:12.419Z,3.63
2022-10-09T16:06:39.562Z,3.72
2022-10-09T16:09:09.285Z,3.85
2022-10-09T16:11:36.358Z,3.55
2022-10-09T16:14:05.236Z,3.63
2022-10-09T16:16:32.340Z,3.88
2022-10-09T16:19:00.945Z,3.28
2022-10-09T16:21:29.253Z,2.97
2022-10-09T16:23:59.762Z,2.95
2022-10-09T16:26:29.540Z,3.50
2022-10-09T16:28:59.090Z,2.60
2022-10-09T16:31:30.325Z,2.00
2022-10-09T16:33:59.404Z,2.38
2022-10-09T16:36:26.962Z,2.25
2022-10-09T16:38:55.773Z,2.50
2022-10-09T16:41:23.934Z,2.40
2022-10-09T16:43:55.554Z,2.60
2022-10-09T16:46:25.264Z,1.85
2022-10-09T16:48:55.061Z,2.55
2022-10-09T16:51:25.978Z,2.25
2022-10-09T16:53:55.202Z,2.38
2022-10-09T16:56:25.958Z,2.50
2022-10-09T16:59:06.097Z,2.05
2022-10-09T17:01:37.164Z,2.22
2022-10-09T17:04:05.731Z,1.80
2022-10-09T17:06:36.235Z,2.00
2022-10-09T17:09:14.151Z,1.80
2022-10-09T17:11:42.339Z,1.95
2022-10-09T17:14:23.091Z,1.92
2022-10-09T17:16:50.608Z,2.03
2022-10-09T17:19:18.729Z,1.85
2022-10-09T17:21:46.027Z,1.95
2022-10-09T17:24:15.798Z,2.00
2022-10-09T17:26:46.317Z,2.28
2022-10-09T17:29:14.838Z,1.73
2022-10-09T17:31:42.243Z,2.17
2022-10-09T17:34:09.396Z,1.95
2022-10-09T17:36:39.427Z,2.20
2022-10-09T17:39:11.983Z,2.30
2022-10-09T17:41:39.289Z,2.25
2022-10-09T17:44:06.318Z,2.03
2022-10-09T17:46:33.637Z,3.28
2022-10-09T17:49:01.581Z,3.58
2022-10-09T17:51:35.050Z,2.60
2022-10-09T17:54:09.512Z,3.47
2022-10-09T17:56:40.593Z,3.10
2022-10-09T17:59:08.564Z,3.33
2022-10-09T18:01:37.065Z,4.90
2022-10-09T18:04:05.135Z,4.38
2022-10-09T18:06:34.253Z,4.90
2022-10-09T18:09:02.523Z,4.95
2022-10-09T18:11:31.069Z,4.78
2022-10-09T18:13:58.548Z,5.60
2022-10-09T18:16:36.514Z,5.65
2022-10-09T18:19:13.854Z,5.90
2022-10-09T18:21:43.971Z,6.15
2022-10-09T18:24:11.000Z,6.78
2022-10-09T18:26:38.596Z,5.90
2022-10-09T18:29:06.187Z,5.25
2022-10-09T18:31:33.752Z,6.57
2022-10-09T18:34:05.093Z,9.77
2022-10-09T18:36:33.939Z,12.10
2022-10-09T18:39:06.772Z,11.00
2022-10-09T18:41:34.556Z,9.98
2022-10-09T18:44:02.432Z,11.88
2022-10-09T18:46:36.394Z,11.15
2022-10-09T18:49:09.140Z,11.63
2022-10-09T18:51:37.982Z,11.43
2022-10-09T18:54:14.447Z,11.68
2022-10-09T18:56:44.251Z,11.60
2022-10-09T18:59:13.972Z,11.55
2022-10-09T19:01:41.340Z,11.32
2022-10-09T19:04:09.190Z,15.45
2022-10-09T19:06:36.780Z,17.30
2022-10-09T19:09:04.823Z,14.43
2022-10-09T19:11:33.823Z,12.50
2022-10-09T19:14:02.261Z,8.15
2022-10-09T19:16:31.228Z,8.55
2022-10-09T19:18:58.714Z,10.63
2022-10-09T19:21:26.524Z,10.93
2022-10-09T19:23:54.644Z,16.30
2022-10-09T19:26:23.577Z,20.08
2022-10-09T19:28:50.671Z,26.02
2022-10-09T19:31:18.302Z,25.33
2022-10-09T19:33:45.828Z,17.63
2022-10-09T19:36:14.196Z,8.98
2022-10-09T19:38:41.989Z,8.90
2022-10-09T19:41:15.522Z,9.52
2022-10-09T19:43:43.148Z,8.75
2022-10-09T19:46:17.671Z,7.80
2022-10-09T19:48:46.355Z,6.38
2022-10-09T19:51:20.454Z,6.25
2022-10-09T19:53:48.862Z,5.60
2022-10-09T19:56:21.973Z,5.72
2022-10-09T19:58:49.839Z,5.32
2022-10-09T20:01:20.156Z,6.03
2022-10-09T20:03:48.489Z,6.10
2022-10-09T20:06:17.120Z,5.88
2022-10-09T20:08:45.950Z,5.10
2022-10-09T20:11:14.746Z,5.55
2022-10-09T20:13:43.476Z,4.50
2022-10-09T20:16:13.476Z,5.10
2022-10-09T20:18:42.918Z,6.25
2022-10-09T20:21:16.554Z,8.00
2022-10-09T20:23:45.062Z,10.73
2022-10-09T20:26:15.649Z,10.45
2022-10-09T20:28:44.112Z,11.38
2022-10-09T20:31:16.820Z,11.93
2022-10-09T20:33:44.850Z,13.60
2022-10-09T20:36:40.031Z,9.40
2022-10-09T20:39:10.951Z,10.07
2022-10-09T20:41:39.089Z,8.30
2022-10-09T20:44:06.970Z,9.88
2022-10-09T20:46:37.097Z,8.07
2022-10-09T20:49:06.976Z,7.60
2022-10-09T20:51:38.721Z,9.25
2022-10-09T20:54:07.424Z,11.75
2022-10-09T20:56:35.660Z,11.02
2022-10-09T20:59:04.264Z,10.05
2022-10-09T21:01:31.321Z,11.88
2022-10-09T21:03:59.462Z,11.88
2022-10-09T21:06:27.174Z,16.48
2022-10-09T21:08:55.075Z,16.70
2022-10-09T21:11:22.934Z,15.35
2022-10-09T21:13:50.368Z,14.40
2022-10-09T21:16:23.435Z,12.93
2022-10-09T21:18:59.044Z,10.73
2022-10-09T21:21:27.335Z,13.57
2022-10-09T21:23:56.735Z,10.27
2022-10-09T21:26:24.732Z,11.38
2022-10-09T21:28:58.269Z,11.75
2022-10-09T21:31:28.975Z,8.52
2022-10-09T21:33:57.114Z,8.70
2022-10-09T21:37:08.900Z,7.55
2022-10-09T21:39:33.421Z,9.75
2022-10-09T21:42:00.760Z,6.78
2022-10-09T21:44:27.956Z,7.40
2022-10-09T21:46:55.037Z,8.18
2022-10-09T21:49:24.584Z,6.35
2022-10-09T21:51:51.939Z,7.32
2022-10-09T21:54:19.302Z,7.22
2022-10-09T21:56:46.328Z,6.60
2022-10-09T21:59:13.180Z,7.40
2022-10-09T22:01:42.056Z,7.20
2022-10-09T22:04:09.089Z,6.90
2022-10-09T22:06:35.998Z,7.60
2022-10-09T22:09:03.983Z,7.80
2022-10-09T22:11:31.180Z,7.38
2022-10-09T22:13:58.085Z,8.43
2022-10-09T22:16:25.054Z,8.38
2022-10-09T22:18:52.175Z,8.50
2022-10-09T22:21:19.726Z,11.05
2022-10-09T22:23:46.791Z,9.02
2022-10-09T22:26:18.013Z,8.88
2022-10-09T22:28:46.355Z,8.98
2022-10-09T22:31:20.510Z,9.63
2022-10-09T22:33:52.853Z,10.90
2022-10-09T22:36:21.909Z,11.63
2022-10-09T22:38:49.049Z,10.15
2022-10-09T22:41:19.141Z,9.57
2022-10-09T22:43:48.194Z,10.40
2022-10-09T22:46:21.322Z,10.60
2022-10-09T22:48:48.406Z,10.93
2022-10-09T22:51:16.820Z,9.75
2022-10-09T22:53:44.441Z,12.00
2022-10-09T22:56:18.563Z,8.82
2022-10-09T22:58:46.227Z,9.45
2022-10-09T23:01:19.427Z,10.27
2022-10-09T23:03:46.556Z,8.52
2022-10-09T23:06:16.578Z,9.55
2022-10-09T23:08:46.949Z,8.23
2022-10-09T23:11:15.678Z,8.63
2022-10-09T23:13:42.886Z,8.57
2022-10-09T23:16:12.504Z,6.32
2022-10-09T23:18:40.604Z,6.40
2022-10-09T23:21:11.058Z,6.45
2022-10-09T23:23:38.453Z,6.10
2022-10-09T23:26:06.899Z,6.82
2022-10-09T23:28:34.977Z,6.93
2022-10-09T23:31:09.946Z,5.97
2022-10-09T23:33:39.711Z,6.68
2022-10-09T23:36:08.188Z,6.15
2022-10-09T23:38:35.851Z,6.97
2022-10-09T23:41:05.834Z,6.78
2022-10-09T23:43:34.663Z,7.90
2022-10-09T23:46:04.038Z,7.22
2022-10-09T23:48:31.222Z,6.43
2022-10-09T23:50:58.493Z,6.30
2022-10-09T23:53:27.128Z,6.13
2022-10-09T23:55:54.869Z,5.78
2022-10-09T23:58:22.294Z,7.18
